Time;durP1;ratioP1;P1;durP2;ratioP2;P2;SDS_P1;SDS_P2;PMS_P1;PMS_P2;Temp;Humidity;BMP_temperature;BMP_pressure;BME280_temperature;BME280_humidity;BME280_pressure;Samples;Min_cycle;Max_cycle;Signal;HPM_P1;HPM_P2
2023/07/13 00:00:33;;;;;;;9.27;7.03;;;;;;;;;;5071816;28;20203;-51
2023/07/13 00:02:59;;;;;;;11.13;6.73;;;;;;;;;;5049484;28;20220;-52
2023/07/13 00:05:27;;;;;;;9.70;6.93;;;;;;;;;;5050269;28;20262;-48
2023/07/13 00:07:54;;;;;;;6.90;6.20;;;;;;;;;;5051954;28;20222;-52
2023/07/13 00:10:21;;;;;;;7.83;6.73;;;;;;;;;;5052257;28;20230;-51
2023/07/13 00:12:47;;;;;;;10.97;6.53;;;;;;;;;;5051933;28;20199;-52
2023/07/13 00:15:16;;;;;;;9.70;6.97;;;;;;;;;;5052085;28;20204;-54
2023/07/13 00:17:44;;;;;;;9.23;6.20;;;;;;;;;;5051840;28;20211;-51
2023/07/13 00:20:11;;;;;;;10.77;6.30;;;;;;;;;;5051780;28;20557;-52
2023/07/13 00:22:37;;;;;;;7.53;6.20;;;;;;;;;;5051909;28;20224;-52
2023/07/13 00:25:05;;;;;;;7.63;6.40;;;;;;;;;;5051617;28;20204;-53
2023/07/13 00:27:31;;;;;;;6.20;5.60;;;;;;;;;;5051645;28;20675;-52
2023/07/13 00:29:58;;;;;;;5.87;5.37;;;;;;;;;;5051543;28;20247;-55
2023/07/13 00:32:27;;;;;;;7.90;5.57;;;;;;;;;;5051606;28;20188;-54
2023/07/13 00:34:53;;;;;;;10.73;6.53;;;;;;;;;;5051511;28;20203;-52
2023/07/13 00:37:19;;;;;;;10.27;5.63;;;;;;;;;;5051444;28;20200;-54
2023/07/13 00:39:45;;;;;;;8.80;5.77;;;;;;;;;;5051431;28;20287;-52
2023/07/13 00:42:12;;;;;;;7.10;5.37;;;;;;;;;;5051053;28;20331;-52
2023/07/13 00:44:39;;;;;;;9.30;5.63;;;;;;;;;;5051400;28;20229;-54
2023/07/13 00:47:06;;;;;;;6.70;5.30;;;;;;;;;;5051077;28;20275;-53
2023/07/13 00:49:34;;;;;;;6.47;5.17;;;;;;;;;;5051254;28;20716;-53
2023/07/13 00:52:03;;;;;;;7.27;5.00;;;;;;;;;;5051152;28;20246;-53
2023/07/13 00:54:31;;;;;;;5.73;5.23;;;;;;;;;;5051155;28;20200;-53
2023/07/13 00:56:58;;;;;;;5.93;5.33;;;;;;;;;;5051147;28;20552;-54
2023/07/13 00:59:26;;;;;;;6.00;5.40;;;;;;;;;;5051225;28;20211;-54
2023/07/13 01:01:52;;;;;;;9.17;6.43;;;;;;;;;;5050909;28;20227;-53
2023/07/13 01:04:18;;;;;;;7.83;5.80;;;;;;;;;;5050862;28;20635;-54
2023/07/13 01:06:46;;;;;;;7.30;5.43;;;;;;;;;;5051049;28;20203;-52
2023/07/13 01:09:13;;;;;;;10.47;5.93;;;;;;;;;;5050907;28;20215;-52
2023/07/13 01:11:41;;;;;;;6.80;5.73;;;;;;;;;;5050972;28;20607;-53
2023/07/13 01:14:07;;;;;;;6.63;5.93;;;;;;;;;;5050904;28;20283;-51
2023/07/13 01:16:35;;;;;;;7.00;5.23;;;;;;;;;;5050799;28;20670;-53
2023/07/13 01:19:02;;;;;;;6.80;6.10;;;;;;;;;;5064449;28;20207;-53
2023/07/13 01:21:32;;;;;;;6.83;6.10;;;;;;;;;;5070983;28;20203;-53
2023/07/13 01:23:58;;;;;;;5.80;5.30;;;;;;;;;;5070817;28;20276;-53
2023/07/13 01:26:24;;;;;;;6.50;5.50;;;;;;;;;;5070970;28;20222;-53
2023/07/13 01:28:50;;;;;;;6.70;6.00;;;;;;;;;;5070739;28;20221;-52
2023/07/13 01:31:16;;;;;;;6.60;5.83;;;;;;;;;;5070815;28;20658;-52
2023/07/13 01:33:42;;;;;;;8.13;6.37;;;;;;;;;;5070661;28;20565;-52
2023/07/13 01:36:09;;;;;;;8.37;5.63;;;;;;;;;;5070684;28;20274;-52
2023/07/13 01:38:37;;;;;;;8.67;6.23;;;;;;;;;;5070791;28;20605;-53
2023/07/13 01:41:03;;;;;;;7.17;5.37;;;;;;;;;;5070856;28;20206;-53
2023/07/13 01:43:29;;;;;;;8.63;6.17;;;;;;;;;;5070560;28;20233;-52
2023/07/13 01:45:55;;;;;;;7.27;5.70;;;;;;;;;;5070657;28;20230;-53
2023/07/13 01:48:21;;;;;;;8.10;5.10;;;;;;;;;;5070733;28;20519;-53
2023/07/13 01:50:48;;;;;;;6.23;5.10;;;;;;;;;;5070599;28;20825;-53
2023/07/13 01:53:14;;;;;;;6.47;5.80;;;;;;;;;;5070489;28;20286;-52
2023/07/13 01:55:42;;;;;;;7.97;6.10;;;;;;;;;;5070583;28;20234;-53
2023/07/13 01:58:08;;;;;;;9.33;5.83;;;;;;;;;;5071726;28;20211;-56
2023/07/13 02:00:34;;;;;;;8.63;6.27;;;;;;;;;;5074445;28;20546;-53
2023/07/13 02:03:00;;;;;;;5.60;5.10;;;;;;;;;;5074218;28;20284;-53
2023/07/13 02:05:26;;;;;;;5.93;5.37;;;;;;;;;;5074277;28;20753;-54
2023/07/13 02:07:52;;;;;;;5.67;4.50;;;;;;;;;;5074566;28;20219;-53
2023/07/13 02:10:18;;;;;;;6.23;5.63;;;;;;;;;;5074047;28;20654;-54
2023/07/13 02:12:46;;;;;;;6.77;5.63;;;;;;;;;;5074151;28;20238;-54
2023/07/13 02:15:12;;;;;;;7.27;5.87;;;;;;;;;;5073978;28;20200;-53
2023/07/13 02:17:38;;;;;;;8.07;5.63;;;;;;;;;;5073996;28;20662;-54
2023/07/13 02:20:05;;;;;;;8.77;6.10;;;;;;;;;;5074085;28;20205;-53
2023/07/13 02:22:31;;;;;;;8.73;5.60;;;;;;;;;;5073965;28;20239;-54
2023/07/13 02:24:57;;;;;;;6.30;5.00;;;;;;;;;;5073920;28;20630;-53
2023/07/13 02:27:23;;;;;;;7.23;5.17;;;;;;;;;;5073960;28;20279;-53
2023/07/13 02:29:53;;;;;;;5.03;4.53;;;;;;;;;;5073842;28;20199;-53
2023/07/13 02:32:19;;;;;;;9.60;4.87;;;;;;;;;;5073836;28;20192;-54
2023/07/13 02:34:45;;;;;;;7.60;4.63;;;;;;;;;;5073797;28;20678;-53
2023/07/13 02:37:11;;;;;;;5.77;4.87;;;;;;;;;;5073759;28;20195;-54
2023/07/13 02:39:37;;;;;;;8.53;5.10;;;;;;;;;;5073904;28;20284;-54
2023/07/13 02:42:04;;;;;;;9.97;5.10;;;;;;;;;;5073454;28;20627;-54
2023/07/13 02:44:30;;;;;;;7.33;5.40;;;;;;;;;;5073854;28;20230;-54
2023/07/13 02:46:57;;;;;;;9.97;5.93;;;;;;;;;;5073613;28;20206;-54
2023/07/13 02:49:23;;;;;;;7.57;5.23;;;;;;;;;;5073467;28;20195;-54
2023/07/13 02:51:49;;;;;;;8.97;5.13;;;;;;;;;;5073505;28;20203;-54
2023/07/13 02:54:15;;;;;;;6.47;4.70;;;;;;;;;;5073447;28;20192;-54
2023/07/13 02:56:43;;;;;;;5.93;3.83;;;;;;;;;;5073625;28;20200;-54
2023/07/13 02:59:09;;;;;;;4.80;4.00;;;;;;;;;;5073349;28;20223;-54
2023/07/13 03:01:36;;;;;;;5.43;3.70;;;;;;;;;;5073384;28;20261;-54
2023/07/13 03:04:03;;;;;;;5.53;3.87;;;;;;;;;;5072954;28;20225;-54
2023/07/13 03:06:31;;;;;;;5.77;3.50;;;;;;;;;;5073376;28;20229;-54
2023/07/13 03:08:57;;;;;;;6.33;3.73;;;;;;;;;;5072387;28;20188;-54
2023/07/13 03:11:23;;;;;;;7.50;3.80;;;;;;;;;;5072796;28;20210;-54
2023/07/13 03:13:49;;;;;;;7.37;4.17;;;;;;;;;;5073101;28;20224;-54
2023/07/13 03:16:16;;;;;;;10.13;4.10;;;;;;;;;;5073266;28;20208;-54
2023/07/13 03:18:42;;;;;;;7.30;4.07;;;;;;;;;;5072815;28;20252;-54
2023/07/13 03:21:10;;;;;;;9.63;4.10;;;;;;;;;;5072471;28;20192;-54
2023/07/13 03:23:36;;;;;;;8.33;3.70;;;;;;;;;;5072351;28;20590;-54
2023/07/13 03:26:03;;;;;;;6.70;3.30;;;;;;;;;;5072813;28;20692;-54
2023/07/13 03:28:29;;;;;;;10.30;4.27;;;;;;;;;;5072878;28;20199;-54
2023/07/13 03:30:59;;;;;;;5.00;3.17;;;;;;;;;;5072557;28;20206;-54
2023/07/13 03:33:25;;;;;;;8.63;3.47;;;;;;;;;;5072564;28;20668;-54
2023/07/13 03:35:51;;;;;;;10.45;3.65;;;;;;;;;;5072694;28;20287;-54
2023/07/13 03:38:19;;;;;;;7.37;3.20;;;;;;;;;;5072535;28;20269;-54
2023/07/13 03:40:45;;;;;;;10.23;3.33;;;;;;;;;;5072782;28;20199;-54
2023/07/13 03:43:11;;;;;;;8.13;3.20;;;;;;;;;;5072196;28;20317;-54
2023/07/13 03:45:38;;;;;;;7.35;3.70;;;;;;;;;;5072463;28;20577;-54
2023/07/13 03:48:04;;;;;;;11.57;3.60;;;;;;;;;;5072254;28;20400;-54
2023/07/13 03:50:30;;;;;;;8.57;3.33;;;;;;;;;;5072421;28;20549;-54
2023/07/13 03:52:57;;;;;;;8.93;3.43;;;;;;;;;;5072290;28;20256;-53
2023/07/13 03:55:26;;;;;;;9.40;3.33;;;;;;;;;;5072341;28;20642;-54
2023/07/13 03:57:57;;;;;;;5.30;3.17;;;;;;;;;;5072130;28;20287;-54
2023/07/13 04:00:24;;;;;;;11.10;3.73;;;;;;;;;;5072344;28;20620;-54
2023/07/13 04:02:50;;;;;;;4.53;2.73;;;;;;;;;;5072032;28;20232;-54
2023/07/13 04:05:16;;;;;;;12.17;3.80;;;;;;;;;;5072098;28;20276;-54
2023/07/13 04:07:42;;;;;;;7.37;2.90;;;;;;;;;;5072041;28;20187;-54
2023/07/13 04:10:08;;;;;;;10.50;3.20;;;;;;;;;;5071823;28;20269;-54
2023/07/13 04:12:36;;;;;;;8.10;2.80;;;;;;;;;;5071929;28;20282;-54
2023/07/13 04:15:02;;;;;;;5.37;2.70;;;;;;;;;;5071939;28;20242;-54
2023/07/13 04:17:28;;;;;;;5.37;2.87;;;;;;;;;;5072043;28;20261;-54
2023/07/13 04:19:54;;;;;;;9.50;3.07;;;;;;;;;;5071725;28;20658;-54
2023/07/13 04:22:20;;;;;;;6.50;2.90;;;;;;;;;;5071627;28;20286;-54
2023/07/13 04:24:46;;;;;;;7.47;2.87;;;;;;;;;;5071820;28;20260;-54
2023/07/13 04:27:12;;;;;;;6.13;2.90;;;;;;;;;;5071702;28;20195;-54
2023/07/13 04:29:39;;;;;;;7.77;2.63;;;;;;;;;;5071656;28;20210;-54
2023/07/13 04:32:05;;;;;;;8.57;2.80;;;;;;;;;;5071473;28;20281;-54
2023/07/13 04:34:31;;;;;;;6.57;2.67;;;;;;;;;;5071624;28;20221;-54
2023/07/13 04:36:57;;;;;;;7.80;2.80;;;;;;;;;;5071454;28;20692;-54
2023/07/13 04:39:23;;;;;;;8.93;3.43;;;;;;;;;;5071530;28;20203;-54
2023/07/13 04:41:49;;;;;;;6.63;3.40;;;;;;;;;;5071411;28;20294;-54
2023/07/13 04:44:15;;;;;;;5.57;2.80;;;;;;;;;;5070954;28;20643;-56
2023/07/13 04:46:42;;;;;;;6.40;2.57;;;;;;;;;;5071209;28;20207;-55
2023/07/13 04:49:08;;;;;;;4.83;2.70;;;;;;;;;;5071318;28;20249;-54
2023/07/13 04:51:35;;;;;;;4.97;2.60;;;;;;;;;;5071153;28;20674;-54
2023/07/13 04:54:01;;;;;;;7.20;2.73;;;;;;;;;;5071145;28;20191;-54
2023/07/13 04:56:27;;;;;;;7.70;3.13;;;;;;;;;;5071309;28;20200;-54
2023/07/13 04:58:52;;;;;;;4.63;2.90;;;;;;;;;;5071401;28;20199;-55
2023/07/13 05:01:19;;;;;;;7.33;3.27;;;;;;;;;;5071295;28;20198;-55
2023/07/13 05:03:46;;;;;;;6.87;3.40;;;;;;;;;;5070987;28;20318;-54
2023/07/13 05:06:13;;;;;;;8.43;2.93;;;;;;;;;;5070955;28;20211;-54
2023/07/13 05:08:39;;;;;;;6.00;2.90;;;;;;;;;;5071164;28;20257;-52
2023/07/13 05:11:06;;;;;;;5.10;2.80;;;;;;;;;;5070946;28;20608;-53
2023/07/13 05:13:33;;;;;;;9.97;3.20;;;;;;;;;;5070960;28;20201;-54
2023/07/13 05:16:00;;;;;;;3.90;2.80;;;;;;;;;;5070880;28;20195;-54
2023/07/13 05:18:26;;;;;;;8.67;3.23;;;;;;;;;;5070790;28;20662;-55
2023/07/13 05:20:58;;;;;;;8.83;3.17;;;;;;;;;;5070953;28;20199;-54
2023/07/13 05:23:24;;;;;;;7.10;3.00;;;;;;;;;;5070884;28;20224;-54
2023/07/13 05:25:50;;;;;;;7.93;3.13;;;;;;;;;;5070970;28;20206;-54
2023/07/13 05:28:16;;;;;;;5.87;2.80;;;;;;;;;;5070995;28;20646;-54
2023/07/13 05:30:46;;;;;;;6.10;3.10;;;;;;;;;;5070821;28;20200;-54
2023/07/13 05:33:12;;;;;;;9.80;3.30;;;;;;;;;;5072211;28;20558;-54
2023/07/13 05:35:38;;;;;;;7.60;2.90;;;;;;;;;;5074893;28;20206;-54
2023/07/13 05:38:05;;;;;;;8.43;3.03;;;;;;;;;;5074815;28;20191;-54
2023/07/13 05:40:31;;;;;;;6.60;2.90;;;;;;;;;;5074846;28;20211;-54
2023/07/13 05:42:57;;;;;;;7.83;2.97;;;;;;;;;;5074333;28;20243;-55
2023/07/13 05:45:23;;;;;;;4.60;3.03;;;;;;;;;;5074636;28;20253;-55
2023/07/13 05:47:49;;;;;;;6.43;3.13;;;;;;;;;;5074454;28;20227;-55
2023/07/13 05:50:15;;;;;;;8.73;3.20;;;;;;;;;;5074613;28;20202;-55
2023/07/13 05:52:41;;;;;;;10.37;3.00;;;;;;;;;;5074537;28;20210;-55
2023/07/13 05:55:09;;;;;;;7.93;2.97;;;;;;;;;;5074454;28;20196;-55
2023/07/13 05:57:35;;;;;;;9.00;2.70;;;;;;;;;;5074555;28;20196;-56
2023/07/13 06:00:01;;;;;;;6.77;2.70;;;;;;;;;;5074337;28;20208;-55
2023/07/13 06:02:28;;;;;;;6.37;2.50;;;;;;;;;;5074312;28;20202;-55
2023/07/13 06:04:54;;;;;;;8.27;2.50;;;;;;;;;;5074857;28;20225;-56
2023/07/13 06:07:20;;;;;;;8.23;2.67;;;;;;;;;;5074315;28;20274;-56
2023/07/13 06:09:46;;;;;;;7.60;3.00;;;;;;;;;;5074246;28;20253;-56
2023/07/13 06:12:13;;;;;;;6.10;2.53;;;;;;;;;;5074146;28;20636;-56
2023/07/13 06:14:39;;;;;;;7.63;2.57;;;;;;;;;;5074226;28;20200;-56
2023/07/13 06:17:05;;;;;;;9.40;2.83;;;;;;;;;;5073890;28;20286;-56
2023/07/13 06:19:32;;;;;;;7.97;2.67;;;;;;;;;;5074155;28;20200;-56
2023/07/13 06:21:58;;;;;;;9.13;2.90;;;;;;;;;;5074044;28;20196;-56
2023/07/13 06:24:24;;;;;;;5.90;2.60;;;;;;;;;;5073740;28;20220;-56
2023/07/13 06:26:50;;;;;;;4.87;2.50;;;;;;;;;;5074021;28;20197;-56
2023/07/13 06:29:17;;;;;;;6.53;2.40;;;;;;;;;;5073852;28;20672;-56
2023/07/13 06:31:43;;;;;;;4.37;2.27;;;;;;;;;;5074113;28;20270;-56
2023/07/13 06:34:09;;;;;;;5.97;2.70;;;;;;;;;;5073594;28;20667;-55
2023/07/13 06:36:36;;;;;;;5.03;2.20;;;;;;;;;;5073859;28;20194;-56
2023/07/13 06:39:02;;;;;;;6.33;2.50;;;;;;;;;;5072463;28;20575;-56
2023/07/13 06:41:28;;;;;;;6.40;2.90;;;;;;;;;;5073990;28;20293;-55
2023/07/13 06:43:54;;;;;;;7.57;2.50;;;;;;;;;;5073160;28;20313;-56
2023/07/13 06:46:22;;;;;;;3.50;2.20;;;;;;;;;;5073632;28;20205;-55
2023/07/13 06:48:48;;;;;;;5.90;2.50;;;;;;;;;;5073530;28;20206;-55
2023/07/13 06:51:14;;;;;;;7.33;3.30;;;;;;;;;;5073397;28;20695;-55
2023/07/13 06:53:40;;;;;;;7.67;2.73;;;;;;;;;;5073452;28;20202;-55
2023/07/13 06:56:06;;;;;;;8.27;2.80;;;;;;;;;;5073259;28;20645;-55
2023/07/13 06:58:34;;;;;;;8.97;2.60;;;;;;;;;;5073471;28;20199;-54
2023/07/13 07:01:00;;;;;;;8.77;2.77;;;;;;;;;;5073222;28;20653;-55
2023/07/13 07:03:27;;;;;;;6.63;2.60;;;;;;;;;;5073097;28;20640;-54
2023/07/13 07:05:53;;;;;;;9.40;2.97;;;;;;;;;;5073093;28;20300;-54
2023/07/13 07:08:19;;;;;;;6.93;2.53;;;;;;;;;;5073039;28;20284;-54
2023/07/13 07:10:46;;;;;;;6.97;2.37;;;;;;;;;;5073072;28;20603;-54
2023/07/13 07:13:12;;;;;;;11.57;3.10;;;;;;;;;;5072914;28;20199;-54
2023/07/13 07:15:38;;;;;;;5.67;2.40;;;;;;;;;;5073069;28;20221;-54
2023/07/13 07:18:04;;;;;;;7.20;2.67;;;;;;;;;;5072836;28;20199;-54
2023/07/13 07:20:32;;;;;;;5.20;2.10;;;;;;;;;;5072911;28;20278;-55
2023/07/13 07:22:58;;;;;;;5.03;2.53;;;;;;;;;;5072798;28;20244;-55
2023/07/13 07:25:24;;;;;;;8.73;2.70;;;;;;;;;;5072993;28;20238;-55
2023/07/13 07:27:50;;;;;;;11.20;3.00;;;;;;;;;;5072861;28;20191;-55
2023/07/13 07:30:16;;;;;;;6.07;2.33;;;;;;;;;;5072823;28;20269;-55
2023/07/13 07:32:43;;;;;;;6.70;2.53;;;;;;;;;;5073133;28;20221;-54
2023/07/13 07:35:08;;;;;;;8.50;2.60;;;;;;;;;;5072635;28;20215;-54
2023/07/13 07:37:36;;;;;;;6.87;2.70;;;;;;;;;;5072637;28;20639;-55
2023/07/13 07:40:02;;;;;;;9.20;2.50;;;;;;;;;;5072392;28;20207;-55
2023/07/13 07:42:29;;;;;;;6.57;2.43;;;;;;;;;;5072335;28;20717;-55
2023/07/13 07:44:55;;;;;;;6.03;2.20;;;;;;;;;;5072282;28;20290;-51
2023/07/13 07:47:22;;;;;;;6.90;2.70;;;;;;;;;;5070926;28;20223;-54
2023/07/13 07:49:48;;;;;;;12.07;3.10;;;;;;;;;;5072439;28;20206;-54
2023/07/13 07:52:14;;;;;;;8.60;2.50;;;;;;;;;;5072439;28;20200;-55
2023/07/13 07:54:42;;;;;;;8.17;2.67;;;;;;;;;;5072239;28;20650;-52
2023/07/13 07:57:08;;;;;;;9.10;2.70;;;;;;;;;;5071547;28;20200;-53
2023/07/13 07:59:34;;;;;;;7.53;2.63;;;;;;;;;;5072532;28;20191;-51
2023/07/13 08:02:02;;;;;;;6.07;2.63;;;;;;;;;;5072262;28;20196;-54
2023/07/13 08:04:28;;;;;;;8.70;2.73;;;;;;;;;;5072214;28;20222;-54
2023/07/13 08:06:56;;;;;;;7.50;2.13;;;;;;;;;;5072265;28;20203;-53
2023/07/13 08:09:22;;;;;;;11.40;3.00;;;;;;;;;;5072043;28;20211;-54
2023/07/13 08:11:51;;;;;;;7.00;2.60;;;;;;;;;;5072157;28;20195;-54
2023/07/13 08:14:17;;;;;;;7.30;2.50;;;;;;;;;;5072028;28;20207;-54
2023/07/13 08:16:43;;;;;;;7.20;2.40;;;;;;;;;;5072064;28;20616;-54
2023/07/13 08:19:09;;;;;;;8.93;2.90;;;;;;;;;;5071830;28;20279;-54
2023/07/13 08:21:35;;;;;;;5.63;2.43;;;;;;;;;;5072021;28;20633;-56
2023/07/13 08:24:01;;;;;;;9.40;2.97;;;;;;;;;;5071719;28;20219;-54
2023/07/13 08:26:27;;;;;;;6.70;2.60;;;;;;;;;;5071932;28;20196;-52
2023/07/13 08:28:54;;;;;;;8.63;2.80;;;;;;;;;;5071798;28;20210;-50
2023/07/13 08:31:20;;;;;;;4.67;2.40;;;;;;;;;;5071774;28;20208;-50
2023/07/13 08:33:46;;;;;;;6.97;2.20;;;;;;;;;;5071698;28;20617;-51
2023/07/13 08:36:12;;;;;;;8.67;2.60;;;;;;;;;;5071652;28;20204;-51
2023/07/13 08:38:38;;;;;;;7.33;2.70;;;;;;;;;;5071770;28;20196;-51
2023/07/13 08:41:11;;;;;;;6.07;2.47;;;;;;;;;;5071489;28;20694;-50
2023/07/13 08:43:37;;;;;;;4.23;2.43;;;;;;;;;;5071502;28;20234;-52
2023/07/13 08:46:09;;;;;;;3.27;2.00;;;;;;;;;;5071511;28;20245;-54
2023/07/13 08:48:38;;;;;;;7.13;1.97;;;;;;;;;;5071675;28;20241;-52
2023/07/13 08:51:10;;;;;;;11.00;2.60;;;;;;;;;;5071356;28;20203;-53
2023/07/13 08:53:38;;;;;;;3.27;1.83;;;;;;;;;;5071455;28;20188;-50
2023/07/13 08:56:05;;;;;;;4.90;2.00;;;;;;;;;;5071660;28;20416;-51
2023/07/13 08:58:33;;;;;;;5.33;1.67;;;;;;;;;;5071699;28;20270;-52
2023/07/13 09:01:04;;;;;;;3.73;2.17;;;;;;;;;;5071633;28;20204;-50
2023/07/13 09:03:35;;;;;;;3.60;1.67;;;;;;;;;;5069843;28;20220;-51
2023/07/13 09:06:02;;;;;;;3.40;1.70;;;;;;;;;;5063227;28;20792;-52
2023/07/13 09:08:35;;;;;;;4.90;2.27;;;;;;;;;;5071192;28;20219;-50
2023/07/13 09:11:05;;;;;;;3.70;1.87;;;;;;;;;;5071063;28;20206;-53
2023/07/13 09:13:37;;;;;;;5.33;2.03;;;;;;;;;;5071392;28;20200;-52
2023/07/13 09:16:05;;;;;;;6.27;2.10;;;;;;;;;;5070926;28;20193;-51
2023/07/13 09:18:34;;;;;;;3.47;1.90;;;;;;;;;;5070682;28;20207;-50
2023/07/13 09:21:02;;;;;;;5.33;1.70;;;;;;;;;;5070800;28;20238;-52
2023/07/13 09:23:30;;;;;;;4.37;1.70;;;;;;;;;;5071156;28;20255;-51
2023/07/13 09:26:00;;;;;;;3.53;1.63;;;;;;;;;;5070788;28;20280;-52
2023/07/13 09:28:27;;;;;;;4.30;2.07;;;;;;;;;;5071048;28;20203;-54
2023/07/13 09:31:01;;;;;;;4.43;1.80;;;;;;;;;;5070545;28;20207;-54
2023/07/13 09:33:29;;;;;;;2.47;1.70;;;;;;;;;;5070547;28;20278;-51
2023/07/13 09:36:00;;;;;;;5.97;1.93;;;;;;;;;;5070990;28;20206;-52
2023/07/13 09:38:28;;;;;;;3.93;1.80;;;;;;;;;;5070775;28;20282;-54
2023/07/13 09:41:01;;;;;;;3.60;1.77;;;;;;;;;;5070738;28;20621;-53
2023/07/13 09:43:30;;;;;;;4.03;1.80;;;;;;;;;;5070165;28;20249;-54
2023/07/13 09:45:56;;;;;;;3.10;1.90;;;;;;;;;;5070454;28;20680;-52
2023/07/13 09:48:24;;;;;;;2.57;1.43;;;;;;;;;;5070478;28;20211;-53
2023/07/13 09:50:55;;;;;;;3.77;1.80;;;;;;;;;;5069451;28;20193;-54
2023/07/13 09:53:23;;;;;;;3.77;2.10;;;;;;;;;;5070371;28;20238;-55
2023/07/13 09:55:49;;;;;;;3.33;1.87;;;;;;;;;;5070507;28;20289;-55
2023/07/13 09:58:17;;;;;;;3.30;1.90;;;;;;;;;;5070479;28;20329;-53
2023/07/13 10:00:44;;;;;;;2.70;1.70;;;;;;;;;;5070709;28;20258;-54
2023/07/13 10:03:18;;;;;;;3.37;1.70;;;;;;;;;;5070299;28;20225;-55
2023/07/13 10:05:45;;;;;;;3.90;2.10;;;;;;;;;;5068471;28;20695;-56
2023/07/13 10:08:18;;;;;;;5.20;1.70;;;;;;;;;;5070659;28;20207;-54
2023/07/13 10:10:46;;;;;;;5.37;2.10;;;;;;;;;;5070623;28;20212;-55
2023/07/13 10:13:26;;;;;;;7.13;1.77;;;;;;;;;;5070673;28;20618;-54
2023/07/13 10:15:52;;;;;;;4.97;2.07;;;;;;;;;;5070871;28;20291;-54
2023/07/13 10:18:19;;;;;;;5.63;2.00;;;;;;;;;;5070663;28;20287;-51
2023/07/13 10:20:45;;;;;;;4.13;1.80;;;;;;;;;;5074053;28;20221;-53
2023/07/13 10:23:14;;;;;;;6.27;2.10;;;;;;;;;;5073900;28;20711;-53
2023/07/13 10:25:41;;;;;;;3.10;1.80;;;;;;;;;;5074251;28;20187;-52
2023/07/13 10:28:16;;;;;;;3.03;1.90;;;;;;;;;;5074226;28;20203;-53
2023/07/13 10:30:43;;;;;;;3.30;1.80;;;;;;;;;;5074259;28;20209;-51
2023/07/13 10:33:11;;;;;;;4.67;2.07;;;;;;;;;;5074193;28;20230;-51
2023/07/13 10:35:39;;;;;;;4.80;2.10;;;;;;;;;;5074427;28;20212;-52
2023/07/13 10:38:07;;;;;;;2.63;1.70;;;;;;;;;;5074285;28;20241;-52
2023/07/13 10:40:35;;;;;;;2.07;1.60;;;;;;;;;;5074110;28;20199;-55
2023/07/13 10:43:03;;;;;;;5.07;1.80;;;;;;;;;;5073876;28;20243;-53
2023/07/13 10:45:31;;;;;;;3.07;1.67;;;;;;;;;;5074121;28;20249;-53
2023/07/13 10:47:57;;;;;;;6.40;2.00;;;;;;;;;;5073960;28;20215;-52
2023/07/13 10:50:27;;;;;;;3.87;1.97;;;;;;;;;;5074082;28;20191;-52
2023/07/13 10:53:01;;;;;;;4.27;2.07;;;;;;;;;;5074029;28;20294;-53
2023/07/13 10:55:35;;;;;;;3.03;1.80;;;;;;;;;;5073794;28;20618;-53
2023/07/13 10:58:01;;;;;;;2.27;1.70;;;;;;;;;;5073912;28;20573;-53
2023/07/13 11:00:34;;;;;;;3.47;1.87;;;;;;;;;;5073762;28;20274;-52
2023/07/13 11:03:01;;;;;;;4.87;2.07;;;;;;;;;;5073704;28;20223;-53
2023/07/13 11:05:28;;;;;;;4.23;1.97;;;;;;;;;;5073610;28;20702;-52
2023/07/13 11:07:56;;;;;;;4.23;2.27;;;;;;;;;;5073815;28;20199;-52
2023/07/13 11:10:37;;;;;;;6.00;1.93;;;;;;;;;;5073834;28;20322;-53
2023/07/13 11:13:03;;;;;;;2.73;1.90;;;;;;;;;;5073539;28;20200;-53
2023/07/13 11:15:32;;;;;;;5.03;1.97;;;;;;;;;;5073335;28;20245;-53
2023/07/13 11:18:02;;;;;;;3.97;1.90;;;;;;;;;;5073215;28;20208;-53
2023/07/13 11:20:33;;;;;;;3.27;1.80;;;;;;;;;;5073193;28;20634;-52
2023/07/13 11:23:08;;;;;;;7.13;1.80;;;;;;;;;;5072977;28;20227;-52
2023/07/13 11:25:37;;;;;;;4.43;1.70;;;;;;;;;;5073303;28;20549;-53
2023/07/13 11:28:06;;;;;;;4.03;2.10;;;;;;;;;;5073192;28;20197;-53
2023/07/13 11:30:36;;;;;;;2.80;1.80;;;;;;;;;;5071950;28;20191;-53
2023/07/13 11:33:12;;;;;;;4.20;1.87;;;;;;;;;;5072917;28;20212;-53
2023/07/13 11:35:47;;;;;;;5.03;1.73;;;;;;;;;;5073024;28;20692;-51
2023/07/13 11:38:16;;;;;;;3.17;1.70;;;;;;;;;;5072807;28;20199;-53
2023/07/13 11:40:44;;;;;;;3.70;1.87;;;;;;;;;;5072811;28;20197;-52
2023/07/13 11:43:13;;;;;;;3.57;1.80;;;;;;;;;;5072553;28;20329;-53
2023/07/13 11:45:40;;;;;;;4.80;1.80;;;;;;;;;;5072967;28;20198;-51
2023/07/13 11:48:17;;;;;;;2.93;2.00;;;;;;;;;;5072605;28;20229;-51
2023/07/13 11:50:50;;;;;;;2.60;1.80;;;;;;;;;;5072554;28;20571;-54
2023/07/13 11:53:16;;;;;;;4.23;2.00;;;;;;;;;;5072563;28;20217;-54
2023/07/13 11:55:43;;;;;;;3.43;1.80;;;;;;;;;;5072649;28;20289;-51
2023/07/13 11:58:11;;;;;;;2.80;1.70;;;;;;;;;;5072312;28;20209;-51
2023/07/13 12:00:38;;;;;;;2.63;1.70;;;;;;;;;;5072649;28;20290;-51
2023/07/13 12:03:05;;;;;;;3.20;1.80;;;;;;;;;;5072385;28;20279;-52
2023/07/13 12:05:32;;;;;;;5.40;1.93;;;;;;;;;;5071892;28;20222;-54
2023/07/13 12:07:58;;;;;;;5.37;1.70;;;;;;;;;;5061833;28;20199;-54
2023/07/13 12:10:25;;;;;;;2.50;1.67;;;;;;;;;;5062251;28;20197;-53
2023/07/13 12:12:53;;;;;;;3.90;1.90;;;;;;;;;;5060799;28;20201;-52
2023/07/13 12:15:19;;;;;;;3.27;1.67;;;;;;;;;;5061585;28;20195;-53
2023/07/13 12:17:46;;;;;;;3.63;1.87;;;;;;;;;;5062826;28;20577;-53
2023/07/13 12:20:20;;;;;;;3.50;1.97;;;;;;;;;;5054983;28;20249;-53
2023/07/13 12:22:47;;;;;;;4.27;1.80;;;;;;;;;;5052191;28;20669;-52
2023/07/13 12:25:13;;;;;;;3.00;1.50;;;;;;;;;;5051981;28;20211;-52
2023/07/13 12:27:39;;;;;;;3.50;1.83;;;;;;;;;;5052384;28;20202;-53
2023/07/13 12:30:26;;;;;;;5.53;1.70;;;;;;;;;;5052131;28;20203;-53
2023/07/13 12:32:59;;;;;;;3.37;1.33;;;;;;;;;;5051939;28;20624;-53
2023/07/13 12:35:29;;;;;;;2.77;1.40;;;;;;;;;;5051976;28;20254;-54
2023/07/13 12:37:57;;;;;;;2.90;1.60;;;;;;;;;;5058546;28;20202;-52
2023/07/13 12:40:27;;;;;;;3.27;1.20;;;;;;;;;;5060157;28;20201;-52
2023/07/13 12:42:53;;;;;;;3.23;1.20;;;;;;;;;;5060352;28;20233;-53
2023/07/13 12:45:24;;;;;;;3.43;1.40;;;;;;;;;;5060957;28;20280;-51
2023/07/13 12:47:53;;;;;;;1.97;1.30;;;;;;;;;;5059571;28;20193;-52
2023/07/13 12:50:20;;;;;;;2.50;1.17;;;;;;;;;;5051680;28;20209;-51
2023/07/13 12:52:52;;;;;;;3.00;1.17;;;;;;;;;;5051834;28;20296;-51
2023/07/13 12:55:20;;;;;;;2.50;1.30;;;;;;;;;;5051662;28;20279;-50
2023/07/13 12:57:50;;;;;;;1.47;1.17;;;;;;;;;;5051697;28;20275;-50
2023/07/13 13:00:27;;;;;;;1.30;1.20;;;;;;;;;;5051737;28;20204;-50
2023/07/13 13:02:54;;;;;;;3.00;1.10;;;;;;;;;;5051583;28;20200;-52
2023/07/13 13:05:23;;;;;;;1.60;1.00;;;;;;;;;;5051477;28;20220;-50
2023/07/13 13:07:49;;;;;;;1.10;1.00;;;;;;;;;;5051601;28;20208;-51
2023/07/13 13:10:16;;;;;;;1.30;0.90;;;;;;;;;;5051538;28;20280;-51
2023/07/13 13:12:42;;;;;;;1.67;1.27;;;;;;;;;;5051345;28;20672;-50
2023/07/13 13:15:09;;;;;;;1.87;1.10;;;;;;;;;;5051373;28;20327;-50
2023/07/13 13:17:35;;;;;;;2.30;1.10;;;;;;;;;;5051349;28;20725;-51
2023/07/13 13:20:01;;;;;;;1.17;1.07;;;;;;;;;;5051374;28;20202;-52
2023/07/13 13:22:27;;;;;;;1.43;1.10;;;;;;;;;;5053971;28;20643;-52
2023/07/13 13:24:54;;;;;;;1.33;1.10;;;;;;;;;;5051227;28;20737;-51
2023/07/13 13:27:22;;;;;;;1.20;1.10;;;;;;;;;;5051302;28;20204;-52
2023/07/13 13:29:50;;;;;;;2.63;1.20;;;;;;;;;;5051243;28;20545;-53
2023/07/13 13:32:16;;;;;;;1.57;1.10;;;;;;;;;;5051254;28;20663;-53
2023/07/13 13:34:42;;;;;;;3.67;1.10;;;;;;;;;;5051077;28;20675;-52
2023/07/13 13:37:17;;;;;;;1.83;1.40;;;;;;;;;;5053781;28;20291;-53
2023/07/13 13:39:44;;;;;;;1.20;1.10;;;;;;;;;;5051297;28;20202;-52
2023/07/13 13:42:10;;;;;;;1.50;1.30;;;;;;;;;;5048559;28;20201;-52
2023/07/13 13:44:38;;;;;;;2.47;1.20;;;;;;;;;;5050718;28;20228;-52
2023/07/13 13:47:04;;;;;;;0.80;0.80;;;;;;;;;;5050550;28;20211;-53
2023/07/13 13:49:31;;;;;;;1.83;1.30;;;;;;;;;;5050505;28;20288;-53
2023/07/13 13:51:57;;;;;;;1.93;1.33;;;;;;;;;;5050621;28;20670;-51
2023/07/13 13:54:23;;;;;;;2.00;1.47;;;;;;;;;;5052227;28;20197;-53
2023/07/13 13:56:50;;;;;;;2.43;1.50;;;;;;;;;;5054595;28;20283;-52
2023/07/13 13:59:16;;;;;;;1.73;1.40;;;;;;;;;;5054509;28;20199;-52
2023/07/13 14:01:45;;;;;;;1.83;1.50;;;;;;;;;;5054507;28;20227;-52
2023/07/13 14:04:14;;;;;;;2.80;1.80;;;;;;;;;;5054217;28;20307;-52
2023/07/13 14:06:41;;;;;;;2.73;1.57;;;;;;;;;;5054520;28;20209;-52
2023/07/13 14:09:09;;;;;;;3.00;1.47;;;;;;;;;;5054466;28;20443;-51
2023/07/13 14:11:35;;;;;;;2.47;1.60;;;;;;;;;;5054406;28;20196;-51
2023/07/13 14:14:04;;;;;;;2.70;2.00;;;;;;;;;;5054327;28;20184;-51
2023/07/13 14:16:31;;;;;;;2.10;1.87;;;;;;;;;;5054014;28;20541;-50
2023/07/13 14:18:59;;;;;;;2.47;1.90;;;;;;;;;;5054482;28;20200;-51
2023/07/13 14:21:26;;;;;;;2.30;2.10;;;;;;;;;;5054127;28;20279;-51
2023/07/13 14:23:52;;;;;;;2.93;1.70;;;;;;;;;;5054324;28;20277;-51
2023/07/13 14:26:19;;;;;;;2.50;2.13;;;;;;;;;;5057203;28;20243;-50
2023/07/13 14:28:47;;;;;;;4.70;2.13;;;;;;;;;;5054474;28;20204;-53
2023/07/13 14:31:14;;;;;;;2.00;1.80;;;;;;;;;;5054339;28;20662;-51
2023/07/13 14:33:40;;;;;;;4.00;1.90;;;;;;;;;;5054757;28;20249;-52
2023/07/13 14:36:17;;;;;;;2.60;1.90;;;;;;;;;;5054623;28;20203;-50
2023/07/13 14:38:43;;;;;;;2.97;2.23;;;;;;;;;;5054492;28;20236;-51
2023/07/13 14:41:09;;;;;;;2.60;1.80;;;;;;;;;;5054383;28;20196;-51
2023/07/13 14:43:35;;;;;;;2.23;1.80;;;;;;;;;;5054303;28;20304;-52